sensor_id;sensor_type;location;lat;lon;timestamp;pressure;altitude;pressure_sealevel;temperature;humidity
41515;BME280;27247;48.020;16.720;2022-09-03T00:01:34;99829.44;;;12.07;85.94
41515;BME280;27247;48.020;16.720;2022-09-03T00:05:49;99833.69;;;12.17;86.37
41515;BME280;27247;48.020;16.720;2022-09-03T00:10:07;99839.78;;;12.10;85.89
41515;BME280;27247;48.020;16.720;2022-09-03T00:14:27;99843.41;;;12.18;85.95
41515;BME280;27247;48.020;16.720;2022-09-03T00:18:51;99843.94;;;12.13;84.91
41515;BME280;27247;48.020;16.720;2022-09-03T00:23:05;99844.13;;;11.82;86.68
41515;BME280;27247;48.020;16.720;2022-09-03T00:27:20;99841.41;;;11.67;87.46
41515;BME280;27247;48.020;16.720;2022-09-03T00:31:35;99845.66;;;11.62;88.70
41515;BME280;27247;48.020;16.720;2022-09-03T00:35:53;99847.09;;;11.49;91.46
41515;BME280;27247;48.020;16.720;2022-09-03T00:40:10;99845.94;;;11.67;90.93
41515;BME280;27247;48.020;16.720;2022-09-03T00:49:12;99855.03;;;11.80;89.73
41515;BME280;27247;48.020;16.720;2022-09-03T00:53:48;99855.69;;;11.97;88.18
41515;BME280;27247;48.020;16.720;2022-09-03T01:07:22;99857.06;;;11.93;88.19
41515;BME280;27247;48.020;16.720;2022-09-03T01:16:55;99854.28;;;12.01;87.71
41515;BME280;27247;48.020;16.720;2022-09-03T01:30:30;99845.69;;;12.35;86.08
41515;BME280;27247;48.020;16.720;2022-09-03T01:39:07;99843.38;;;12.32;86.44
41515;BME280;27247;48.020;16.720;2022-09-03T01:43:49;99839.22;;;12.30;86.48
41515;BME280;27247;48.020;16.720;2022-09-03T01:52:50;99840.69;;;12.32;85.63
41515;BME280;27247;48.020;16.720;2022-09-03T02:06:16;99845.16;;;11.96;89.63
41515;BME280;27247;48.020;16.720;2022-09-03T02:14:43;99835.19;;;12.04;89.48
41515;BME280;27247;48.020;16.720;2022-09-03T02:18:55;99841.38;;;12.05;89.67
41515;BME280;27247;48.020;16.720;2022-09-03T02:23:07;99836.00;;;12.05;89.80
41515;BME280;27247;48.020;16.720;2022-09-03T02:27:18;99837.31;;;12.09;89.63
41515;BME280;27247;48.020;16.720;2022-09-03T02:31:28;99849.97;;;12.00;90.25
41515;BME280;27247;48.020;16.720;2022-09-03T02:35:39;99836.28;;;11.95;90.71
41515;BME280;27247;48.020;16.720;2022-09-03T02:39:50;99841.00;;;11.78;91.57
41515;BME280;27247;48.020;16.720;2022-09-03T02:48:20;99831.59;;;11.60;92.79
41515;BME280;27247;48.020;16.720;2022-09-03T02:52:32;99842.41;;;11.51;93.39
41515;BME280;27247;48.020;16.720;2022-09-03T02:56:42;99847.66;;;11.60;93.23
41515;BME280;27247;48.020;16.720;2022-09-03T03:00:52;99847.84;;;11.58;92.86
41515;BME280;27247;48.020;16.720;2022-09-03T03:05:04;99840.84;;;11.57;93.36
41515;BME280;27247;48.020;16.720;2022-09-03T03:09:16;99846.09;;;11.50;93.96
41515;BME280;27247;48.020;16.720;2022-09-03T03:13:27;99855.31;;;11.48;94.28
41515;BME280;27247;48.020;16.720;2022-09-03T03:17:38;99850.78;;;11.48;94.44
41515;BME280;27247;48.020;16.720;2022-09-03T03:21:48;99852.63;;;11.48;94.76
41515;BME280;27247;48.020;16.720;2022-09-03T03:26:03;99850.66;;;11.42;94.97
41515;BME280;27247;48.020;16.720;2022-09-03T03:30:14;99856.19;;;11.40;95.77
41515;BME280;27247;48.020;16.720;2022-09-03T03:34:24;99857.19;;;11.39;96.30
41515;BME280;27247;48.020;16.720;2022-09-03T03:38:35;99847.69;;;11.37;96.48
41515;BME280;27247;48.020;16.720;2022-09-03T03:42:46;99842.22;;;11.30;96.88
41515;BME280;27247;48.020;16.720;2022-09-03T03:46:56;99850.31;;;11.22;97.60
41515;BME280;27247;48.020;16.720;2022-09-03T03:51:08;99849.31;;;11.23;98.12
41515;BME280;27247;48.020;16.720;2022-09-03T03:55:19;99850.66;;;11.19;99.59
41515;BME280;27247;48.020;16.720;2022-09-03T03:59:29;99862.13;;;11.28;99.93
41515;BME280;27247;48.020;16.720;2022-09-03T04:03:40;99858.09;;;11.32;99.50
41515;BME280;27247;48.020;16.720;2022-09-03T04:07:51;99861.88;;;11.37;99.11
41515;BME280;27247;48.020;16.720;2022-09-03T04:12:01;99868.59;;;11.33;99.58
41515;BME280;27247;48.020;16.720;2022-09-03T04:16:26;99875.69;;;11.26;100.00
41515;BME280;27247;48.020;16.720;2022-09-03T04:20:37;99868.25;;;11.13;100.00
41515;BME280;27247;48.020;16.720;2022-09-03T04:24:48;99865.59;;;11.13;100.00
41515;BME280;27247;48.020;16.720;2022-09-03T04:29:00;99869.09;;;11.14;100.00
41515;BME280;27247;48.020;16.720;2022-09-03T04:33:11;99870.88;;;11.22;100.00
41515;BME280;27247;48.020;16.720;2022-09-03T04:37:21;99877.19;;;11.29;100.00
41515;BME280;27247;48.020;16.720;2022-09-03T04:41:32;99877.66;;;11.32;100.00
41515;BME280;27247;48.020;16.720;2022-09-03T04:45:42;99868.06;;;11.38;100.00
41515;BME280;27247;48.020;16.720;2022-09-03T04:49:52;99871.72;;;11.45;100.00
41515;BME280;27247;48.020;16.720;2022-09-03T04:54:04;99873.03;;;11.49;100.00
41515;BME280;27247;48.020;16.720;2022-09-03T04:58:14;99894.06;;;11.52;100.00
41515;BME280;27247;48.020;16.720;2022-09-03T05:02:24;99893.00;;;11.61;100.00
41515;BME280;27247;48.020;16.720;2022-09-03T05:06:35;99877.59;;;11.63;100.00
41515;BME280;27247;48.020;16.720;2022-09-03T05:10:46;99865.13;;;11.70;100.00
41515;BME280;27247;48.020;16.720;2022-09-03T05:14:57;99868.88;;;11.84;100.00
41515;BME280;27247;48.020;16.720;2022-09-03T05:19:08;99874.44;;;11.97;100.00
41515;BME280;27247;48.020;16.720;2022-09-03T05:23:19;99873.78;;;12.10;100.00
41515;BME280;27247;48.020;16.720;2022-09-03T05:27:31;99882.00;;;12.23;100.00
41515;BME280;27247;48.020;16.720;2022-09-03T05:31:41;99877.56;;;12.45;100.00
41515;BME280;27247;48.020;16.720;2022-09-03T05:35:52;99876.34;;;12.62;100.00
41515;BME280;27247;48.020;16.720;2022-09-03T05:40:03;99874.47;;;12.77;100.00
41515;BME280;27247;48.020;16.720;2022-09-03T05:44:14;99871.56;;;12.94;100.00
41515;BME280;27247;48.020;16.720;2022-09-03T05:48:24;99866.22;;;13.15;99.66
41515;BME280;27247;48.020;16.720;2022-09-03T05:52:36;99871.97;;;13.33;98.47
41515;BME280;27247;48.020;16.720;2022-09-03T05:56:46;99871.16;;;13.54;97.33
41515;BME280;27247;48.020;16.720;2022-09-03T06:00:57;99874.84;;;13.74;95.86
41515;BME280;27247;48.020;16.720;2022-09-03T06:05:08;99875.38;;;13.91;94.55
41515;BME280;27247;48.020;16.720;2022-09-03T06:09:20;99882.69;;;14.04;94.58
41515;BME280;27247;48.020;16.720;2022-09-03T06:13:31;99874.91;;;14.16;92.75
41515;BME280;27247;48.020;16.720;2022-09-03T06:17:42;99868.00;;;14.41;92.88
41515;BME280;27247;48.020;16.720;2022-09-03T06:21:52;99863.63;;;14.61;92.59
41515;BME280;27247;48.020;16.720;2022-09-03T06:26:05;99867.81;;;14.84;91.30
41515;BME280;27247;48.020;16.720;2022-09-03T06:30:16;99861.88;;;15.08;90.09
41515;BME280;27247;48.020;16.720;2022-09-03T06:34:26;99867.31;;;15.34;89.38
41515;BME280;27247;48.020;16.720;2022-09-03T06:38:38;99859.09;;;15.62;87.78
41515;BME280;27247;48.020;16.720;2022-09-03T06:42:56;99855.94;;;15.99;87.12
41515;BME280;27247;48.020;16.720;2022-09-03T06:47:11;99853.78;;;16.27;85.25
41515;BME280;27247;48.020;16.720;2022-09-03T06:51:23;99864.06;;;16.56;83.79
41515;BME280;27247;48.020;16.720;2022-09-03T06:55:35;99859.47;;;16.77;83.13
41515;BME280;27247;48.020;16.720;2022-09-03T06:59:49;99856.44;;;16.98;82.33
41515;BME280;27247;48.020;16.720;2022-09-03T07:04:01;99863.59;;;17.17;81.23
41515;BME280;27247;48.020;16.720;2022-09-03T07:08:12;99862.50;;;17.25;81.00
41515;BME280;27247;48.020;16.720;2022-09-03T07:12:23;99860.25;;;17.47;79.96
41515;BME280;27247;48.020;16.720;2022-09-03T07:16:35;99862.00;;;17.66;80.00
41515;BME280;27247;48.020;16.720;2022-09-03T07:20:45;99858.59;;;17.77;78.93
41515;BME280;27247;48.020;16.720;2022-09-03T07:24:56;99856.91;;;18.01;78.28
41515;BME280;27247;48.020;16.720;2022-09-03T07:29:06;99858.63;;;17.96;77.04
41515;BME280;27247;48.020;16.720;2022-09-03T07:33:17;99858.53;;;18.27;77.50
41515;BME280;27247;48.020;16.720;2022-09-03T07:37:28;99859.59;;;18.63;75.91
41515;BME280;27247;48.020;16.720;2022-09-03T07:41:39;99869.41;;;18.94;75.36
41515;BME280;27247;48.020;16.720;2022-09-03T07:45:52;99872.34;;;18.92;74.32
41515;BME280;27247;48.020;16.720;2022-09-03T07:50:04;99858.53;;;18.64;75.81
41515;BME280;27247;48.020;16.720;2022-09-03T07:54:14;99852.78;;;19.20;73.85
41515;BME280;27247;48.020;16.720;2022-09-03T07:58:27;99854.47;;;19.33;73.59
41515;BME280;27247;48.020;16.720;2022-09-03T08:02:38;99848.38;;;19.49;73.50
41515;BME280;27247;48.020;16.720;2022-09-03T08:06:48;99865.50;;;19.61;73.16
41515;BME280;27247;48.020;16.720;2022-09-03T08:11:06;99858.47;;;19.30;72.55
41515;BME280;27247;48.020;16.720;2022-09-03T08:15:20;99847.63;;;19.84;72.59
41515;BME280;27247;48.020;16.720;2022-09-03T08:19:30;99850.44;;;20.24;71.28
41515;BME280;27247;48.020;16.720;2022-09-03T08:23:42;99851.72;;;20.33;70.44
41515;BME280;27247;48.020;16.720;2022-09-03T08:27:53;99858.56;;;20.35;69.62
41515;BME280;27247;48.020;16.720;2022-09-03T08:32:03;99851.75;;;20.73;70.13
41515;BME280;27247;48.020;16.720;2022-09-03T08:36:19;99840.03;;;20.32;69.49
41515;BME280;27247;48.020;16.720;2022-09-03T08:40:36;99839.56;;;20.47;68.74
41515;BME280;27247;48.020;16.720;2022-09-03T08:44:57;99844.75;;;20.37;68.49
41515;BME280;27247;48.020;16.720;2022-09-03T08:49:12;99835.44;;;20.85;69.24
41515;BME280;27247;48.020;16.720;2022-09-03T08:58:06;99826.41;;;21.24;67.38
41515;BME280;27247;48.020;16.720;2022-09-03T09:24:34;99828.91;;;21.14;67.55
41515;BME280;27247;48.020;16.720;2022-09-03T09:28:52;99834.75;;;21.34;66.13
41515;BME280;27247;48.020;16.720;2022-09-03T09:33:04;99826.72;;;21.78;65.37
41515;BME280;27247;48.020;16.720;2022-09-03T09:37:16;99831.53;;;21.71;64.96
41515;BME280;27247;48.020;16.720;2022-09-03T09:41:28;99827.22;;;21.75;64.98
41515;BME280;27247;48.020;16.720;2022-09-03T09:45:40;99830.72;;;21.87;65.46
41515;BME280;27247;48.020;16.720;2022-09-03T09:49:59;99824.91;;;22.01;64.42
41515;BME280;27247;48.020;16.720;2022-09-03T09:58:21;99825.78;;;22.67;62.90
41515;BME280;27247;48.020;16.720;2022-09-03T10:02:34;99819.88;;;22.75;62.12
41515;BME280;27247;48.020;16.720;2022-09-03T10:06:53;99819.84;;;22.91;61.02
41515;BME280;27247;48.020;16.720;2022-09-03T10:11:04;99812.94;;;22.84;62.16
41515;BME280;27247;48.020;16.720;2022-09-03T10:24:58;99804.16;;;23.04;60.61
41515;BME280;27247;48.020;16.720;2022-09-03T10:29:11;99797.25;;;23.55;60.23
41515;BME280;27247;48.020;16.720;2022-09-03T10:33:29;99794.72;;;23.48;59.74
41515;BME280;27247;48.020;16.720;2022-09-03T10:46:48;99789.13;;;24.02;59.45
41515;BME280;27247;48.020;16.720;2022-09-03T10:55:37;99790.63;;;23.83;58.49
41515;BME280;27247;48.020;16.720;2022-09-03T11:04:24;99791.03;;;24.02;57.30
41515;BME280;27247;48.020;16.720;2022-09-03T11:08:57;99786.31;;;24.34;57.02
41515;BME280;27247;48.020;16.720;2022-09-03T11:13:30;99796.03;;;24.15;56.59
41515;BME280;27247;48.020;16.720;2022-09-03T11:17:54;99796.38;;;24.29;56.68
41515;BME280;27247;48.020;16.720;2022-09-03T11:22:09;99790.47;;;24.00;56.76
41515;BME280;27247;48.020;16.720;2022-09-03T11:26:21;99777.66;;;24.00;57.39
41515;BME280;27247;48.020;16.720;2022-09-03T11:31:08;99782.28;;;24.62;55.76
41515;BME280;27247;48.020;16.720;2022-09-03T11:39:44;99779.56;;;24.62;55.32
41515;BME280;27247;48.020;16.720;2022-09-03T11:43:55;99779.06;;;24.91;55.39
41515;BME280;27247;48.020;16.720;2022-09-03T11:48:36;99764.38;;;25.22;53.92
41515;BME280;27247;48.020;16.720;2022-09-03T11:52:48;99779.06;;;24.86;54.92
41515;BME280;27247;48.020;16.720;2022-09-03T11:57:22;99773.06;;;24.89;53.73
41515;BME280;27247;48.020;16.720;2022-09-03T12:01:36;99781.06;;;25.00;53.55
41515;BME280;27247;48.020;16.720;2022-09-03T12:10:34;99778.03;;;25.63;53.59
41515;BME280;27247;48.020;16.720;2022-09-03T12:14:54;99765.38;;;24.70;53.62
41515;BME280;27247;48.020;16.720;2022-09-03T12:19:59;99765.84;;;24.42;55.57
41515;BME280;27247;48.020;16.720;2022-09-03T12:23:50;99761.81;;;24.65;54.99
41515;BME280;27247;48.020;16.720;2022-09-03T12:28:11;99765.34;;;24.60;53.89
41515;BME280;27247;48.020;16.720;2022-09-03T12:32:22;99759.28;;;24.43;54.44
41515;BME280;27247;48.020;16.720;2022-09-03T12:36:42;99761.94;;;25.05;54.21
41515;BME280;27247;48.020;16.720;2022-09-03T12:40:53;99750.72;;;25.02;54.07
41515;BME280;27247;48.020;16.720;2022-09-03T12:45:08;99749.06;;;25.26;53.88
41515;BME280;27247;48.020;16.720;2022-09-03T12:49:24;99743.34;;;25.23;53.85
41515;BME280;27247;48.020;16.720;2022-09-03T12:53:35;99733.19;;;25.28;53.81
41515;BME280;27247;48.020;16.720;2022-09-03T12:57:48;99731.03;;;25.25;53.22
41515;BME280;27247;48.020;16.720;2022-09-03T13:02:12;99732.13;;;25.24;52.90
41515;BME280;27247;48.020;16.720;2022-09-03T13:11:00;99715.38;;;25.61;52.58
41515;BME280;27247;48.020;16.720;2022-09-03T13:15:22;99728.00;;;26.42;51.61
41515;BME280;27247;48.020;16.720;2022-09-03T13:19:42;99714.84;;;25.49;52.39
41515;BME280;27247;48.020;16.720;2022-09-03T13:24:17;99727.97;;;25.72;52.44
41515;BME280;27247;48.020;16.720;2022-09-03T13:29:09;99715.38;;;25.56;52.38
41515;BME280;27247;48.020;16.720;2022-09-03T13:33:30;99728.53;;;25.44;53.47
41515;BME280;27247;48.020;16.720;2022-09-03T13:42:21;99713.13;;;25.89;51.80
41515;BME280;27247;48.020;16.720;2022-09-03T13:46:42;99712.22;;;26.14;51.80
41515;BME280;27247;48.020;16.720;2022-09-03T13:51:22;99697.19;;;26.06;51.40
41515;BME280;27247;48.020;16.720;2022-09-03T13:55:41;99698.34;;;25.85;53.13
41515;BME280;27247;48.020;16.720;2022-09-03T14:00:06;99695.72;;;26.29;52.43
41515;BME280;27247;48.020;16.720;2022-09-03T14:04:24;99686.72;;;26.18;52.88
41515;BME280;27247;48.020;16.720;2022-09-03T14:13:09;99689.13;;;26.30;51.46
41515;BME280;27247;48.020;16.720;2022-09-03T14:21:51;99689.19;;;26.20;52.68
41515;BME280;27247;48.020;16.720;2022-09-03T14:26:05;99688.59;;;26.33;52.60
41515;BME280;27247;48.020;16.720;2022-09-03T14:30:24;99683.19;;;26.13;52.77
41515;BME280;27247;48.020;16.720;2022-09-03T14:39:32;99687.66;;;25.88;52.43
41515;BME280;27247;48.020;16.720;2022-09-03T14:43:50;99686.25;;;25.96;51.93
41515;BME280;27247;48.020;16.720;2022-09-03T14:53:01;99687.69;;;25.78;53.33
41515;BME280;27247;48.020;16.720;2022-09-03T14:57:30;99695.84;;;25.93;53.48
41515;BME280;27247;48.020;16.720;2022-09-03T15:01:54;99700.28;;;25.79;53.12
41515;BME280;27247;48.020;16.720;2022-09-03T15:06:43;99690.72;;;25.61;53.23
41515;BME280;27247;48.020;16.720;2022-09-03T15:10:58;99692.44;;;25.27;53.95
41515;BME280;27247;48.020;16.720;2022-09-03T15:15:18;99680.69;;;25.11;54.54
41515;BME280;27247;48.020;16.720;2022-09-03T15:19:57;99695.47;;;25.20;54.17
41515;BME280;27247;48.020;16.720;2022-09-03T15:24:38;99700.34;;;24.82;54.70
41515;BME280;27247;48.020;16.720;2022-09-03T15:33:57;99709.81;;;24.29;56.58
41515;BME280;27247;48.020;16.720;2022-09-03T15:42:36;99692.72;;;23.97;58.18
41515;BME280;27247;48.020;16.720;2022-09-03T15:47:11;99687.75;;;23.88;58.24
41515;BME280;27247;48.020;16.720;2022-09-03T15:51:29;99695.06;;;23.78;58.31
41515;BME280;27247;48.020;16.720;2022-09-03T15:55:43;99697.22;;;23.71;58.80
41515;BME280;27247;48.020;16.720;2022-09-03T16:00:15;99690.09;;;23.65;59.62
41515;BME280;27247;48.020;16.720;2022-09-03T16:09:07;99692.13;;;23.42;59.95
41515;BME280;27247;48.020;16.720;2022-09-03T16:18:21;99690.16;;;23.33;60.45
41515;BME280;27247;48.020;16.720;2022-09-03T16:27:22;99699.00;;;23.13;60.42
41515;BME280;27247;48.020;16.720;2022-09-03T16:40:35;99708.59;;;22.88;60.96
41515;BME280;27247;48.020;16.720;2022-09-03T17:16:39;99729.19;;;22.25;64.17
41515;BME280;27247;48.020;16.720;2022-09-03T17:25:47;99731.72;;;22.10;64.79
41515;BME280;27247;48.020;16.720;2022-09-03T17:34:29;99729.75;;;22.06;64.83
41515;BME280;27247;48.020;16.720;2022-09-03T17:43:10;99721.31;;;21.85;65.63
41515;BME280;27247;48.020;16.720;2022-09-03T17:56:34;99726.31;;;21.77;65.99
41515;BME280;27247;48.020;16.720;2022-09-03T18:00:59;99734.72;;;21.75;66.23
41515;BME280;27247;48.020;16.720;2022-09-03T18:05:22;99744.97;;;21.68;66.33
41515;BME280;27247;48.020;16.720;2022-09-03T18:09:49;99741.94;;;21.64;66.68
41515;BME280;27247;48.020;16.720;2022-09-03T18:18:50;99758.69;;;21.56;67.25
41515;BME280;27247;48.020;16.720;2022-09-03T18:27:43;99768.91;;;21.32;68.08
41515;BME280;27247;48.020;16.720;2022-09-03T18:32:14;99770.88;;;21.37;67.96
41515;BME280;27247;48.020;16.720;2022-09-03T18:36:42;99769.81;;;21.38;67.65
41515;BME280;27247;48.020;16.720;2022-09-03T18:46:30;99775.59;;;21.25;68.43
41515;BME280;27247;48.020;16.720;2022-09-03T19:00:20;99788.72;;;20.99;69.04
41515;BME280;27247;48.020;16.720;2022-09-03T19:09:51;99786.38;;;20.91;69.79
41515;BME280;27247;48.020;16.720;2022-09-03T19:14:39;99803.34;;;20.82;70.17
41515;BME280;27247;48.020;16.720;2022-09-03T19:19:30;99799.41;;;20.78;70.41
41515;BME280;27247;48.020;16.720;2022-09-03T19:24:03;99797.09;;;20.69;70.87
41515;BME280;27247;48.020;16.720;2022-09-03T19:28:38;99800.19;;;20.61;71.41
41515;BME280;27247;48.020;16.720;2022-09-03T19:33:13;99803.06;;;20.55;71.65
41515;BME280;27247;48.020;16.720;2022-09-03T19:38:03;99798.50;;;20.44;72.02
41515;BME280;27247;48.020;16.720;2022-09-03T19:42:50;99814.44;;;20.40;72.26
41515;BME280;27247;48.020;16.720;2022-09-03T19:47:42;99817.50;;;20.32;72.80
41515;BME280;27247;48.020;16.720;2022-09-03T19:52:30;99807.13;;;20.29;73.18
41515;BME280;27247;48.020;16.720;2022-09-03T19:57:02;99822.34;;;20.18;73.73
41515;BME280;27247;48.020;16.720;2022-09-03T20:01:36;99818.81;;;20.18;73.91
41515;BME280;27247;48.020;16.720;2022-09-03T20:06:06;99823.06;;;20.25;73.97
41515;BME280;27247;48.020;16.720;2022-09-03T20:10:36;99830.00;;;20.33;73.76
41515;BME280;27247;48.020;16.720;2022-09-03T20:14:47;99838.84;;;20.28;73.74
41515;BME280;27247;48.020;16.720;2022-09-03T20:32:08;99855.16;;;20.17;74.70
41515;BME280;27247;48.020;16.720;2022-09-03T20:36:29;99849.72;;;20.17;75.09
41515;BME280;27247;48.020;16.720;2022-09-03T20:40:49;99862.47;;;20.16;75.05
41515;BME280;27247;48.020;16.720;2022-09-03T20:49:40;99869.69;;;19.99;75.30
41515;BME280;27247;48.020;16.720;2022-09-03T20:54:08;99865.66;;;20.01;75.51
41515;BME280;27247;48.020;16.720;2022-09-03T21:03:24;99857.19;;;19.86;76.26
41515;BME280;27247;48.020;16.720;2022-09-03T21:07:55;99864.81;;;19.66;76.87
41515;BME280;27247;48.020;16.720;2022-09-03T21:12:18;99858.31;;;19.55;77.78
41515;BME280;27247;48.020;16.720;2022-09-03T21:21:30;99865.44;;;19.38;78.83
41515;BME280;27247;48.020;16.720;2022-09-03T21:25:52;99878.28;;;19.42;78.80
41515;BME280;27247;48.020;16.720;2022-09-03T21:30:06;99875.44;;;19.37;79.07
41515;BME280;27247;48.020;16.720;2022-09-03T21:34:20;99873.66;;;19.31;79.16
41515;BME280;27247;48.020;16.720;2022-09-03T21:38:35;99879.84;;;19.08;80.38
41515;BME280;27247;48.020;16.720;2022-09-03T21:42:59;99886.31;;;19.07;80.42
41515;BME280;27247;48.020;16.720;2022-09-03T21:47:16;99882.97;;;18.94;81.03
41515;BME280;27247;48.020;16.720;2022-09-03T21:51:35;99889.50;;;18.86;81.33
41515;BME280;27247;48.020;16.720;2022-09-03T22:00:17;99893.38;;;19.08;80.13
41515;BME280;27247;48.020;16.720;2022-09-03T22:04:28;99900.22;;;19.11;79.85
41515;BME280;27247;48.020;16.720;2022-09-03T22:09:03;99901.63;;;19.13;79.72
41515;BME280;27247;48.020;16.720;2022-09-03T22:13:29;99905.03;;;19.09;79.58
41515;BME280;27247;48.020;16.720;2022-09-03T22:17:50;99900.69;;;19.08;79.59
41515;BME280;27247;48.020;16.720;2022-09-03T22:22:23;99903.19;;;18.91;80.31
41515;BME280;27247;48.020;16.720;2022-09-03T22:26:56;99909.28;;;18.87;80.81
41515;BME280;27247;48.020;16.720;2022-09-03T22:36:00;99915.63;;;18.37;83.54
41515;BME280;27247;48.020;16.720;2022-09-03T22:40:30;99919.84;;;18.33;83.53
41515;BME280;27247;48.020;16.720;2022-09-03T22:45:04;99921.84;;;18.19;83.74
41515;BME280;27247;48.020;16.720;2022-09-03T22:54:07;99921.75;;;18.08;83.99
41515;BME280;27247;48.020;16.720;2022-09-03T22:58:22;99929.34;;;17.99;84.27
41515;BME280;27247;48.020;16.720;2022-09-03T23:02:34;99917.75;;;17.92;85.07
41515;BME280;27247;48.020;16.720;2022-09-03T23:11:36;99911.50;;;17.92;85.37
41515;BME280;27247;48.020;16.720;2022-09-03T23:16:07;99915.53;;;17.82;86.36
41515;BME280;27247;48.020;16.720;2022-09-03T23:20:21;99907.16;;;17.91;86.61
41515;BME280;27247;48.020;16.720;2022-09-03T23:24:37;99907.56;;;18.12;86.22
41515;BME280;27247;48.020;16.720;2022-09-03T23:28:58;99914.41;;;18.15;86.17
41515;BME280;27247;48.020;16.720;2022-09-03T23:33:11;99925.53;;;18.25;86.51
41515;BME280;27247;48.020;16.720;2022-09-03T23:41:59;99934.72;;;18.24;85.25
41515;BME280;27247;48.020;16.720;2022-09-03T23:46:17;99938.19;;;18.31;84.62
41515;BME280;27247;48.020;16.720;2022-09-03T23:51:01;99936.47;;;18.37;83.48
41515;BME280;27247;48.020;16.720;2022-09-03T23:55:36;99931.81;;;18.44;83.42
